sensor_id;sensor_type;location;lat;lon;timestamp;pressure;altitude;pressure_sealevel;temperature;humidity
65384;BME280;51986;52.788;41.368;2023-04-26T00:00:49;97921.56;;;12.44;71.94
65384;BME280;51986;52.788;41.368;2023-04-26T00:03:16;97924.94;;;12.45;71.46
65384;BME280;51986;52.788;41.368;2023-04-26T00:05:43;97908.88;;;12.30;71.23
65384;BME280;51986;52.788;41.368;2023-04-26T00:08:10;97935.50;;;12.45;71.79
65384;BME280;51986;52.788;41.368;2023-04-26T00:10:37;97914.03;;;12.43;71.53
65384;BME280;51986;52.788;41.368;2023-04-26T00:13:04;97942.16;;;12.58;71.51
65384;BME280;51986;52.788;41.368;2023-04-26T00:15:31;97928.31;;;12.45;71.73
65384;BME280;51986;52.788;41.368;2023-04-26T00:17:58;97912.13;;;12.43;71.51
65384;BME280;51986;52.788;41.368;2023-04-26T00:20:25;97946.25;;;12.50;71.50
65384;BME280;51986;52.788;41.368;2023-04-26T00:22:52;97924.63;;;12.43;71.56
65384;BME280;51986;52.788;41.368;2023-04-26T00:25:19;97905.97;;;12.46;72.12
65384;BME280;51986;52.788;41.368;2023-04-26T00:27:46;97915.09;;;12.45;71.97
65384;BME280;51986;52.788;41.368;2023-04-26T00:30:13;97919.03;;;12.41;71.83
65384;BME280;51986;52.788;41.368;2023-04-26T00:32:59;97926.28;;;12.58;71.70
65384;BME280;51986;52.788;41.368;2023-04-26T00:35:45;97911.25;;;12.37;71.51
65384;BME280;51986;52.788;41.368;2023-04-26T00:38:11;97932.38;;;12.37;71.63
65384;BME280;51986;52.788;41.368;2023-04-26T00:40:38;97901.19;;;12.23;71.93
65384;BME280;51986;52.788;41.368;2023-04-26T00:46:10;97912.97;;;12.22;72.62
65384;BME280;51986;52.788;41.368;2023-04-26T00:48:37;97903.22;;;12.09;72.30
65384;BME280;51986;52.788;41.368;2023-04-26T00:51:04;97911.91;;;12.19;72.29
65384;BME280;51986;52.788;41.368;2023-04-26T00:53:32;97909.25;;;12.19;72.19
65384;BME280;51986;52.788;41.368;2023-04-26T00:56:19;97900.72;;;12.15;72.10
65384;BME280;51986;52.788;41.368;2023-04-26T00:58:46;97894.91;;;12.20;71.82
65384;BME280;51986;52.788;41.368;2023-04-26T01:04:01;97897.50;;;12.11;71.89
65384;BME280;51986;52.788;41.368;2023-04-26T01:06:38;97916.63;;;12.24;72.14
65384;BME280;51986;52.788;41.368;2023-04-26T01:09:06;97899.19;;;11.96;72.34
65384;BME280;51986;52.788;41.368;2023-04-26T01:11:34;97894.66;;;11.96;72.47
65384;BME280;51986;52.788;41.368;2023-04-26T01:14:03;97928.25;;;11.96;71.95
65384;BME280;51986;52.788;41.368;2023-04-26T01:16:31;97911.44;;;12.12;71.89
65384;BME280;51986;52.788;41.368;2023-04-26T01:19:06;97896.56;;;12.05;71.78
65384;BME280;51986;52.788;41.368;2023-04-26T01:21:34;97877.75;;;11.94;72.01
65384;BME280;51986;52.788;41.368;2023-04-26T01:26:46;97900.22;;;11.98;72.17
65384;BME280;51986;52.788;41.368;2023-04-26T01:29:14;97905.59;;;11.85;72.17
65384;BME280;51986;52.788;41.368;2023-04-26T01:31:41;97908.28;;;11.95;72.41
65384;BME280;51986;52.788;41.368;2023-04-26T01:34:09;97915.44;;;11.85;72.88
65384;BME280;51986;52.788;41.368;2023-04-26T01:36:54;97914.56;;;11.88;73.03
65384;BME280;51986;52.788;41.368;2023-04-26T01:39:21;97903.41;;;11.84;72.69
65384;BME280;51986;52.788;41.368;2023-04-26T01:42:07;97884.66;;;12.00;72.40
65384;BME280;51986;52.788;41.368;2023-04-26T01:44:34;97906.44;;;11.73;72.57
65384;BME280;51986;52.788;41.368;2023-04-26T01:47:01;97897.25;;;11.87;73.06
65384;BME280;51986;52.788;41.368;2023-04-26T01:49:28;97897.50;;;11.80;72.96
65384;BME280;51986;52.788;41.368;2023-04-26T01:51:55;97913.41;;;11.89;72.63
65384;BME280;51986;52.788;41.368;2023-04-26T01:54:23;97904.25;;;11.81;73.01
65384;BME280;51986;52.788;41.368;2023-04-26T01:56:51;97883.59;;;11.89;72.48
65384;BME280;51986;52.788;41.368;2023-04-26T01:59:19;97893.06;;;11.77;73.42
65384;BME280;51986;52.788;41.368;2023-04-26T02:01:46;97890.38;;;11.68;73.26
65384;BME280;51986;52.788;41.368;2023-04-26T02:04:13;97877.22;;;11.77;73.17
65384;BME280;51986;52.788;41.368;2023-04-26T02:06:40;97898.00;;;11.88;72.90
65384;BME280;51986;52.788;41.368;2023-04-26T02:09:07;97902.78;;;11.80;73.31
65384;BME280;51986;52.788;41.368;2023-04-26T02:11:38;97902.84;;;11.89;73.24
65384;BME280;51986;52.788;41.368;2023-04-26T02:14:05;97856.34;;;11.48;73.21
65384;BME280;51986;52.788;41.368;2023-04-26T02:16:32;97903.69;;;11.86;73.31
65384;BME280;51986;52.788;41.368;2023-04-26T02:18:59;97904.88;;;11.85;73.35
65384;BME280;51986;52.788;41.368;2023-04-26T02:21:28;97890.97;;;11.94;73.00
65384;BME280;51986;52.788;41.368;2023-04-26T02:23:55;97883.28;;;11.87;72.84
65384;BME280;51986;52.788;41.368;2023-04-26T02:26:22;97887.63;;;12.02;72.61
65384;BME280;51986;52.788;41.368;2023-04-26T02:28:49;97882.34;;;12.02;72.40
65384;BME280;51986;52.788;41.368;2023-04-26T02:31:16;97878.22;;;12.01;71.96
65384;BME280;51986;52.788;41.368;2023-04-26T02:33:43;97881.50;;;12.15;71.92
65384;BME280;51986;52.788;41.368;2023-04-26T02:36:11;97896.53;;;11.96;72.19
65384;BME280;51986;52.788;41.368;2023-04-26T02:38:38;97886.25;;;11.89;72.64
65384;BME280;51986;52.788;41.368;2023-04-26T02:41:05;97893.91;;;11.96;72.34
65384;BME280;51986;52.788;41.368;2023-04-26T02:43:32;97917.34;;;12.16;72.35
65384;BME280;51986;52.788;41.368;2023-04-26T02:45:59;97886.63;;;12.09;72.95
65384;BME280;51986;52.788;41.368;2023-04-26T02:48:26;97892.34;;;12.07;72.36
65384;BME280;51986;52.788;41.368;2023-04-26T02:50:53;97917.34;;;12.16;72.11
65384;BME280;51986;52.788;41.368;2023-04-26T02:53:20;97889.41;;;12.15;72.04
65384;BME280;51986;52.788;41.368;2023-04-26T02:55:47;97872.59;;;11.90;72.82
65384;BME280;51986;52.788;41.368;2023-04-26T02:58:14;97866.41;;;11.84;72.97
65384;BME280;51986;52.788;41.368;2023-04-26T03:00:47;97873.59;;;11.83;73.25
65384;BME280;51986;52.788;41.368;2023-04-26T03:03:14;97878.03;;;11.96;72.73
65384;BME280;51986;52.788;41.368;2023-04-26T03:05:43;97909.59;;;11.90;72.68
65384;BME280;51986;52.788;41.368;2023-04-26T03:08:11;97886.72;;;11.96;72.37
65384;BME280;51986;52.788;41.368;2023-04-26T03:10:38;97887.59;;;11.93;72.35
65384;BME280;51986;52.788;41.368;2023-04-26T03:13:05;97912.72;;;11.98;72.78
65384;BME280;51986;52.788;41.368;2023-04-26T03:15:32;97888.38;;;12.03;72.28
65384;BME280;51986;52.788;41.368;2023-04-26T03:17:59;97904.91;;;11.94;72.72
65384;BME280;51986;52.788;41.368;2023-04-26T03:20:26;97903.47;;;12.02;72.49
65384;BME280;51986;52.788;41.368;2023-04-26T03:22:53;97875.56;;;11.92;72.27
65384;BME280;51986;52.788;41.368;2023-04-26T03:25:20;97902.34;;;11.81;72.74
65384;BME280;51986;52.788;41.368;2023-04-26T03:27:47;97921.44;;;11.85;72.29
65384;BME280;51986;52.788;41.368;2023-04-26T03:30:15;97904.25;;;11.81;72.68
65384;BME280;51986;52.788;41.368;2023-04-26T03:32:43;97888.72;;;11.61;72.93
65384;BME280;51986;52.788;41.368;2023-04-26T03:35:10;97910.91;;;11.64;72.88
65384;BME280;51986;52.788;41.368;2023-04-26T03:37:37;97895.66;;;11.68;73.28
65384;BME280;51986;52.788;41.368;2023-04-26T03:40:07;97912.59;;;11.57;73.31
65384;BME280;51986;52.788;41.368;2023-04-26T03:42:35;97909.28;;;11.66;72.88
65384;BME280;51986;52.788;41.368;2023-04-26T03:45:03;97911.19;;;11.66;73.02
65384;BME280;51986;52.788;41.368;2023-04-26T03:47:30;97934.53;;;11.45;73.25
65384;BME280;51986;52.788;41.368;2023-04-26T03:49:57;97908.63;;;11.31;74.25
65384;BME280;51986;52.788;41.368;2023-04-26T03:52:24;97937.16;;;11.23;73.50
65384;BME280;51986;52.788;41.368;2023-04-26T03:54:52;97914.09;;;11.37;72.79
65384;BME280;51986;52.788;41.368;2023-04-26T03:57:19;97930.00;;;11.46;72.96
65384;BME280;51986;52.788;41.368;2023-04-26T03:59:46;97937.31;;;11.64;72.02
65384;BME280;51986;52.788;41.368;2023-04-26T04:02:13;97926.13;;;11.59;71.96
65384;BME280;51986;52.788;41.368;2023-04-26T04:04:40;97928.03;;;11.59;71.50
65384;BME280;51986;52.788;41.368;2023-04-26T04:07:07;97942.34;;;11.71;71.44
65384;BME280;51986;52.788;41.368;2023-04-26T04:09:34;97948.09;;;11.56;72.41
65384;BME280;51986;52.788;41.368;2023-04-26T04:12:02;97945.34;;;11.60;72.15
65384;BME280;51986;52.788;41.368;2023-04-26T04:14:30;97949.22;;;11.68;71.93
65384;BME280;51986;52.788;41.368;2023-04-26T04:16:57;97931.47;;;11.69;71.66
65384;BME280;51986;52.788;41.368;2023-04-26T04:19:26;97935.91;;;11.72;71.71
65384;BME280;51986;52.788;41.368;2023-04-26T04:21:54;97972.78;;;11.63;71.87
65384;BME280;51986;52.788;41.368;2023-04-26T04:24:21;97947.56;;;11.62;72.13
65384;BME280;51986;52.788;41.368;2023-04-26T04:26:48;97929.06;;;11.62;72.07
65384;BME280;51986;52.788;41.368;2023-04-26T04:29:15;97931.34;;;11.50;72.43
65384;BME280;51986;52.788;41.368;2023-04-26T04:31:42;97950.34;;;11.58;72.09
65384;BME280;51986;52.788;41.368;2023-04-26T04:34:09;97945.09;;;11.67;71.99
65384;BME280;51986;52.788;41.368;2023-04-26T04:36:39;97935.28;;;11.46;72.63
65384;BME280;51986;52.788;41.368;2023-04-26T04:39:06;97941.28;;;11.46;71.63
65384;BME280;51986;52.788;41.368;2023-04-26T04:41:33;97940.50;;;11.58;71.27
65384;BME280;51986;52.788;41.368;2023-04-26T04:44:00;97951.84;;;11.46;71.92
65384;BME280;51986;52.788;41.368;2023-04-26T04:46:27;97949.09;;;11.50;71.44
65384;BME280;51986;52.788;41.368;2023-04-26T04:48:54;97956.03;;;11.34;72.07
65384;BME280;51986;52.788;41.368;2023-04-26T04:51:21;97958.59;;;11.47;72.53
65384;BME280;51986;52.788;41.368;2023-04-26T04:53:49;97945.97;;;11.07;72.81
65384;BME280;51986;52.788;41.368;2023-04-26T04:56:16;97964.25;;;11.37;72.54
65384;BME280;51986;52.788;41.368;2023-04-26T04:58:43;97958.91;;;11.27;72.96
65384;BME280;51986;52.788;41.368;2023-04-26T05:01:10;97969.09;;;11.38;72.61
65384;BME280;51986;52.788;41.368;2023-04-26T05:03:48;97962.81;;;11.23;73.08
65384;BME280;51986;52.788;41.368;2023-04-26T05:06:15;97970.44;;;11.21;73.02
65384;BME280;51986;52.788;41.368;2023-04-26T05:08:42;97957.66;;;11.19;73.44
65384;BME280;51986;52.788;41.368;2023-04-26T05:11:09;97985.31;;;11.15;73.15
65384;BME280;51986;52.788;41.368;2023-04-26T05:13:36;97974.19;;;11.32;73.12
65384;BME280;51986;52.788;41.368;2023-04-26T05:16:04;97957.25;;;11.21;73.46
65384;BME280;51986;52.788;41.368;2023-04-26T05:18:31;97953.91;;;11.07;73.53
65384;BME280;51986;52.788;41.368;2023-04-26T05:20:58;97972.75;;;11.19;72.85
65384;BME280;51986;52.788;41.368;2023-04-26T05:23:25;97971.09;;;11.12;73.19
65384;BME280;51986;52.788;41.368;2023-04-26T05:25:53;97998.53;;;11.15;72.83
65384;BME280;51986;52.788;41.368;2023-04-26T05:28:49;97980.63;;;11.31;72.72
65384;BME280;51986;52.788;41.368;2023-04-26T05:31:22;97970.09;;;11.31;72.68
65384;BME280;51986;52.788;41.368;2023-04-26T05:34:12;97977.34;;;11.40;72.82
65384;BME280;51986;52.788;41.368;2023-04-26T05:36:39;97976.78;;;11.45;71.74
65384;BME280;51986;52.788;41.368;2023-04-26T05:39:06;97988.38;;;11.82;70.97
65384;BME280;51986;52.788;41.368;2023-04-26T05:41:33;97989.88;;;12.15;70.42
65384;BME280;51986;52.788;41.368;2023-04-26T05:44:00;97994.59;;;12.51;69.41
65384;BME280;51986;52.788;41.368;2023-04-26T05:46:28;97970.50;;;12.18;69.85
65384;BME280;51986;52.788;41.368;2023-04-26T05:48:55;97967.59;;;11.94;70.24
65384;BME280;51986;52.788;41.368;2023-04-26T05:51:23;97986.22;;;11.90;70.13
65384;BME280;51986;52.788;41.368;2023-04-26T05:53:50;97978.78;;;11.76;70.78
65384;BME280;51986;52.788;41.368;2023-04-26T05:56:17;97970.13;;;11.97;69.85
65384;BME280;51986;52.788;41.368;2023-04-26T05:58:44;97989.13;;;12.14;69.27
65384;BME280;51986;52.788;41.368;2023-04-26T06:01:11;97986.94;;;11.91;69.58
65384;BME280;51986;52.788;41.368;2023-04-26T06:03:38;97999.00;;;11.92;70.19
65384;BME280;51986;52.788;41.368;2023-04-26T06:06:07;98009.81;;;12.06;70.05
65384;BME280;51986;52.788;41.368;2023-04-26T06:08:37;98009.13;;;11.93;69.79
65384;BME280;51986;52.788;41.368;2023-04-26T06:11:04;97975.88;;;12.05;69.56
65384;BME280;51986;52.788;41.368;2023-04-26T06:13:31;98000.78;;;11.95;69.71
65384;BME280;51986;52.788;41.368;2023-04-26T06:15:59;98026.53;;;12.03;70.01
65384;BME280;51986;52.788;41.368;2023-04-26T06:18:26;98002.88;;;12.31;69.81
65384;BME280;51986;52.788;41.368;2023-04-26T06:20:53;98023.09;;;12.16;69.92
65384;BME280;51986;52.788;41.368;2023-04-26T06:23:26;97985.81;;;12.01;68.98
65384;BME280;51986;52.788;41.368;2023-04-26T06:25:59;98009.38;;;12.08;69.63
65384;BME280;51986;52.788;41.368;2023-04-26T06:28:29;97998.69;;;12.12;69.40
65384;BME280;51986;52.788;41.368;2023-04-26T06:31:06;98015.25;;;12.43;69.05
65384;BME280;51986;52.788;41.368;2023-04-26T06:33:34;98003.06;;;12.36;69.40
65384;BME280;51986;52.788;41.368;2023-04-26T06:36:01;98016.06;;;12.22;69.86
65384;BME280;51986;52.788;41.368;2023-04-26T06:38:28;98021.00;;;11.89;70.46
65384;BME280;51986;52.788;41.368;2023-04-26T06:40:58;98032.59;;;11.91;70.81
65384;BME280;51986;52.788;41.368;2023-04-26T06:43:25;98038.50;;;11.95;70.65
65384;BME280;51986;52.788;41.368;2023-04-26T06:46:01;98045.56;;;11.76;71.66
65384;BME280;51986;52.788;41.368;2023-04-26T06:48:29;98052.19;;;11.81;72.08
65384;BME280;51986;52.788;41.368;2023-04-26T06:50:55;98059.47;;;11.55;72.11
65384;BME280;51986;52.788;41.368;2023-04-26T06:53:22;98024.25;;;11.36;72.88
65384;BME280;51986;52.788;41.368;2023-04-26T06:55:49;98060.75;;;11.50;74.29
65384;BME280;51986;52.788;41.368;2023-04-26T06:58:16;98070.31;;;11.57;73.68
65384;BME280;51986;52.788;41.368;2023-04-26T07:00:43;98086.91;;;11.57;72.98
65384;BME280;51986;52.788;41.368;2023-04-26T07:03:10;98086.56;;;11.81;72.34
65384;BME280;51986;52.788;41.368;2023-04-26T07:05:38;98077.16;;;11.67;71.97
65384;BME280;51986;52.788;41.368;2023-04-26T07:08:05;98102.63;;;12.08;71.14
65384;BME280;51986;52.788;41.368;2023-04-26T07:10:32;98086.63;;;12.12;70.24
65384;BME280;51986;52.788;41.368;2023-04-26T07:13:00;98084.41;;;12.10;70.06
65384;BME280;51986;52.788;41.368;2023-04-26T07:15:27;98118.22;;;11.94;70.67
65384;BME280;51986;52.788;41.368;2023-04-26T07:17:54;98104.97;;;12.06;70.35
65384;BME280;51986;52.788;41.368;2023-04-26T07:20:21;98114.81;;;12.06;70.25
65384;BME280;51986;52.788;41.368;2023-04-26T07:22:49;98109.88;;;12.17;70.36
65384;BME280;51986;52.788;41.368;2023-04-26T07:25:17;98141.78;;;12.23;69.89
65384;BME280;51986;52.788;41.368;2023-04-26T07:27:43;98129.41;;;12.20;70.31
65384;BME280;51986;52.788;41.368;2023-04-26T07:30:10;98122.19;;;12.11;70.14
65384;BME280;51986;52.788;41.368;2023-04-26T07:32:37;98146.63;;;12.02;70.53
65384;BME280;51986;52.788;41.368;2023-04-26T07:35:05;98147.38;;;12.25;70.76
65384;BME280;51986;52.788;41.368;2023-04-26T07:37:32;98153.47;;;12.13;70.99
65384;BME280;51986;52.788;41.368;2023-04-26T07:39:59;98156.59;;;12.42;71.05
65384;BME280;51986;52.788;41.368;2023-04-26T07:42:26;98148.50;;;12.58;70.44
65384;BME280;51986;52.788;41.368;2023-04-26T07:44:53;98169.69;;;12.68;69.82
65384;BME280;51986;52.788;41.368;2023-04-26T07:47:20;98160.66;;;12.56;69.80
65384;BME280;51986;52.788;41.368;2023-04-26T07:49:52;98157.34;;;12.65;68.80
65384;BME280;51986;52.788;41.368;2023-04-26T07:52:19;98173.28;;;12.74;67.96
65384;BME280;51986;52.788;41.368;2023-04-26T07:54:46;98159.16;;;12.77;67.61
65384;BME280;51986;52.788;41.368;2023-04-26T07:57:13;98172.47;;;13.17;67.11
65384;BME280;51986;52.788;41.368;2023-04-26T07:59:40;98189.81;;;13.18;66.94
65384;BME280;51986;52.788;41.368;2023-04-26T08:02:07;98181.69;;;13.03;67.22
65384;BME280;51986;52.788;41.368;2023-04-26T08:04:34;98183.41;;;12.97;66.25
65384;BME280;51986;52.788;41.368;2023-04-26T08:07:01;98199.16;;;13.01;67.20
65384;BME280;51986;52.788;41.368;2023-04-26T08:09:29;98190.19;;;12.98;66.65
65384;BME280;51986;52.788;41.368;2023-04-26T08:11:56;98194.66;;;13.51;65.49
65384;BME280;51986;52.788;41.368;2023-04-26T08:14:23;98172.53;;;13.35;65.19
65384;BME280;51986;52.788;41.368;2023-04-26T08:16:50;98196.72;;;13.56;65.78
65384;BME280;51986;52.788;41.368;2023-04-26T08:19:17;98218.09;;;13.61;65.90
65384;BME280;51986;52.788;41.368;2023-04-26T08:21:44;98191.38;;;13.37;66.27
65384;BME280;51986;52.788;41.368;2023-04-26T08:24:11;98231.59;;;13.45;65.66
65384;BME280;51986;52.788;41.368;2023-04-26T08:26:39;98241.66;;;13.28;66.38
65384;BME280;51986;52.788;41.368;2023-04-26T08:29:05;98235.19;;;12.98;67.37
65384;BME280;51986;52.788;41.368;2023-04-26T08:31:32;98225.50;;;13.04;68.23
65384;BME280;51986;52.788;41.368;2023-04-26T08:33:59;98222.28;;;13.09;67.04
65384;BME280;51986;52.788;41.368;2023-04-26T08:36:26;98238.13;;;12.78;68.77
65384;BME280;51986;52.788;41.368;2023-04-26T08:38:53;98224.88;;;13.00;67.23
65384;BME280;51986;52.788;41.368;2023-04-26T08:41:21;98239.53;;;13.14;66.44
65384;BME280;51986;52.788;41.368;2023-04-26T08:43:49;98243.09;;;13.60;65.27
65384;BME280;51986;52.788;41.368;2023-04-26T08:46:18;98228.13;;;13.76;64.35
65384;BME280;51986;52.788;41.368;2023-04-26T08:48:51;98240.91;;;14.18;64.36
65384;BME280;51986;52.788;41.368;2023-04-26T08:51:22;98215.53;;;14.72;63.25
65384;BME280;51986;52.788;41.368;2023-04-26T08:53:52;98223.66;;;14.50;62.89
65384;BME280;51986;52.788;41.368;2023-04-26T08:56:23;98236.75;;;14.81;61.57
65384;BME280;51986;52.788;41.368;2023-04-26T08:58:52;98231.84;;;14.98;60.72
65384;BME280;51986;52.788;41.368;2023-04-26T09:01:19;98227.22;;;15.07;60.40
65384;BME280;51986;52.788;41.368;2023-04-26T09:03:47;98226.31;;;15.20;59.28
65384;BME280;51986;52.788;41.368;2023-04-26T09:06:18;98233.34;;;14.80;59.87
65384;BME280;51986;52.788;41.368;2023-04-26T09:08:45;98266.84;;;14.69;60.59
65384;BME280;51986;52.788;41.368;2023-04-26T09:11:13;98260.38;;;14.60;60.53
65384;BME280;51986;52.788;41.368;2023-04-26T09:13:40;98255.63;;;14.74;59.23
65384;BME280;51986;52.788;41.368;2023-04-26T09:16:07;98263.91;;;14.66;58.60
65384;BME280;51986;52.788;41.368;2023-04-26T09:18:34;98243.97;;;14.89;58.51
65384;BME280;51986;52.788;41.368;2023-04-26T09:21:14;98251.19;;;14.98;57.06
65384;BME280;51986;52.788;41.368;2023-04-26T09:23:58;98257.56;;;15.43;55.69
65384;BME280;51986;52.788;41.368;2023-04-26T09:26:25;98263.13;;;15.54;55.64
65384;BME280;51986;52.788;41.368;2023-04-26T09:29:16;98255.81;;;15.31;56.17
65384;BME280;51986;52.788;41.368;2023-04-26T09:31:46;98276.19;;;15.34;56.96
65384;BME280;51986;52.788;41.368;2023-04-26T09:34:15;98269.06;;;16.06;56.55
65384;BME280;51986;52.788;41.368;2023-04-26T09:36:52;98252.28;;;15.67;56.51
65384;BME280;51986;52.788;41.368;2023-04-26T09:39:31;98287.53;;;15.43;56.16
65384;BME280;51986;52.788;41.368;2023-04-26T09:41:59;98272.56;;;15.55;56.25
65384;BME280;51986;52.788;41.368;2023-04-26T09:44:28;98287.78;;;16.12;55.45
65384;BME280;51986;52.788;41.368;2023-04-26T09:47:08;98270.63;;;15.89;55.47
65384;BME280;51986;52.788;41.368;2023-04-26T09:49:50;98291.00;;;15.92;55.76
65384;BME280;51986;52.788;41.368;2023-04-26T09:52:18;98298.19;;;16.01;54.75
65384;BME280;51986;52.788;41.368;2023-04-26T09:54:49;98294.84;;;16.24;54.42
65384;BME280;51986;52.788;41.368;2023-04-26T09:57:20;98297.31;;;16.04;54.91
65384;BME280;51986;52.788;41.368;2023-04-26T09:59:50;98322.88;;;16.01;56.08
65384;BME280;51986;52.788;41.368;2023-04-26T10:02:27;98309.56;;;15.68;56.05
65384;BME280;51986;52.788;41.368;2023-04-26T10:04:55;98318.22;;;15.45;56.45
65384;BME280;51986;52.788;41.368;2023-04-26T10:07:24;98327.34;;;15.62;55.24
65384;BME280;51986;52.788;41.368;2023-04-26T10:09:52;98323.53;;;15.87;55.06
65384;BME280;51986;52.788;41.368;2023-04-26T10:12:19;98324.09;;;15.91;55.26
65384;BME280;51986;52.788;41.368;2023-04-26T10:14:47;98326.09;;;16.05;54.04
65384;BME280;51986;52.788;41.368;2023-04-26T10:17:15;98314.31;;;16.30;54.45
65384;BME280;51986;52.788;41.368;2023-04-26T10:19:47;98327.63;;;16.69;54.85
65384;BME280;51986;52.788;41.368;2023-04-26T10:22:22;98345.06;;;16.70;53.30
65384;BME280;51986;52.788;41.368;2023-04-26T10:24:52;98341.44;;;16.43;53.86
65384;BME280;51986;52.788;41.368;2023-04-26T10:27:48;98328.94;;;16.74;52.34
65384;BME280;51986;52.788;41.368;2023-04-26T10:30:20;98352.78;;;17.07;51.92
65384;BME280;51986;52.788;41.368;2023-04-26T10:35:27;98363.34;;;17.01;51.97
65384;BME280;51986;52.788;41.368;2023-04-26T10:40:36;98346.72;;;17.65;51.68
65384;BME280;51986;52.788;41.368;2023-04-26T10:45:38;98368.94;;;17.92;50.00
65384;BME280;51986;52.788;41.368;2023-04-26T10:59:12;98355.84;;;18.44;49.49
65384;BME280;51986;52.788;41.368;2023-04-26T11:02:00;98349.28;;;18.45;46.60
65384;BME280;51986;52.788;41.368;2023-04-26T11:04:52;98343.34;;;18.35;47.21
65384;BME280;51986;52.788;41.368;2023-04-26T11:07:36;98345.06;;;17.68;47.16
65384;BME280;51986;52.788;41.368;2023-04-26T11:10:07;98358.13;;;17.81;46.70
65384;BME280;51986;52.788;41.368;2023-04-26T11:12:34;98361.38;;;18.05;46.55
65384;BME280;51986;52.788;41.368;2023-04-26T11:15:01;98370.22;;;18.11;47.85
65384;BME280;51986;52.788;41.368;2023-04-26T11:17:36;98349.66;;;17.82;47.57
65384;BME280;51986;52.788;41.368;2023-04-26T11:20:15;98366.25;;;18.07;47.44
65384;BME280;51986;52.788;41.368;2023-04-26T11:22:42;98361.19;;;17.59;48.29
65384;BME280;51986;52.788;41.368;2023-04-26T11:25:11;98366.31;;;17.62;48.69
65384;BME280;51986;52.788;41.368;2023-04-26T11:27:42;98378.22;;;18.11;48.20
65384;BME280;51986;52.788;41.368;2023-04-26T11:30:09;98362.75;;;18.36;46.31
65384;BME280;51986;52.788;41.368;2023-04-26T11:32:37;98350.94;;;18.63;45.02
65384;BME280;51986;52.788;41.368;2023-04-26T11:35:04;98361.00;;;18.33;43.75
65384;BME280;51986;52.788;41.368;2023-04-26T11:37:33;98341.16;;;18.34;43.35
65384;BME280;51986;52.788;41.368;2023-04-26T11:39:59;98363.31;;;18.40;43.15
65384;BME280;51986;52.788;41.368;2023-04-26T11:42:26;98335.00;;;18.48;43.56
65384;BME280;51986;52.788;41.368;2023-04-26T11:44:55;98312.84;;;18.21;42.77
65384;BME280;51986;52.788;41.368;2023-04-26T11:47:23;98364.22;;;18.57;42.75
65384;BME280;51986;52.788;41.368;2023-04-26T11:49:50;98360.22;;;18.47;43.77
65384;BME280;51986;52.788;41.368;2023-04-26T11:52:17;98340.19;;;18.57;42.96
65384;BME280;51986;52.788;41.368;2023-04-26T11:54:44;98361.06;;;18.79;42.28
65384;BME280;51986;52.788;41.368;2023-04-26T11:57:15;98347.00;;;18.79;42.77
65384;BME280;51986;52.788;41.368;2023-04-26T11:59:43;98345.38;;;18.66;43.60
65384;BME280;51986;52.788;41.368;2023-04-26T12:02:11;98344.63;;;18.40;42.97
65384;BME280;51986;52.788;41.368;2023-04-26T12:04:39;98338.00;;;18.56;41.96
65384;BME280;51986;52.788;41.368;2023-04-26T12:07:06;98439.16;;;18.68;42.98
65384;BME280;51986;52.788;41.368;2023-04-26T12:09:34;98354.81;;;18.62;42.45
65384;BME280;51986;52.788;41.368;2023-04-26T12:12:02;98333.78;;;18.69;42.53
65384;BME280;51986;52.788;41.368;2023-04-26T12:14:34;98346.84;;;18.88;42.15
65384;BME280;51986;52.788;41.368;2023-04-26T12:17:03;98322.16;;;18.72;41.48
65384;BME280;51986;52.788;41.368;2023-04-26T12:22:00;98361.88;;;18.85;40.36
65384;BME280;51986;52.788;41.368;2023-04-26T12:24:29;98359.91;;;18.86;41.49
65384;BME280;51986;52.788;41.368;2023-04-26T12:26:56;98341.53;;;18.27;41.25
65384;BME280;51986;52.788;41.368;2023-04-26T12:29:25;98365.56;;;18.47;41.87
65384;BME280;51986;52.788;41.368;2023-04-26T12:31:53;98376.53;;;18.49;41.38
65384;BME280;51986;52.788;41.368;2023-04-26T12:34:20;98383.88;;;18.54;42.79
65384;BME280;51986;52.788;41.368;2023-04-26T12:36:47;98391.72;;;18.22;42.82
65384;BME280;51986;52.788;41.368;2023-04-26T12:39:14;98354.88;;;18.47;42.22
65384;BME280;51986;52.788;41.368;2023-04-26T12:41:41;98349.59;;;18.32;42.41
65384;BME280;51986;52.788;41.368;2023-04-26T12:44:09;98347.47;;;18.57;40.81
65384;BME280;51986;52.788;41.368;2023-04-26T12:46:37;98383.78;;;18.89;41.83
65384;BME280;51986;52.788;41.368;2023-04-26T12:49:04;98387.06;;;18.58;41.03
65384;BME280;51986;52.788;41.368;2023-04-26T12:51:31;98385.56;;;18.16;42.13
65384;BME280;51986;52.788;41.368;2023-04-26T12:53:58;98380.56;;;18.09;42.09
65384;BME280;51986;52.788;41.368;2023-04-26T12:56:25;98381.47;;;17.86;42.59
65384;BME280;51986;52.788;41.368;2023-04-26T12:58:52;98387.56;;;17.71;45.21
65384;BME280;51986;52.788;41.368;2023-04-26T13:01:19;98373.47;;;17.86;45.05
65384;BME280;51986;52.788;41.368;2023-04-26T13:03:46;98403.53;;;18.01;44.16
65384;BME280;51986;52.788;41.368;2023-04-26T13:06:13;98410.78;;;18.01;44.77
65384;BME280;51986;52.788;41.368;2023-04-26T13:08:40;98405.78;;;18.08;44.61
65384;BME280;51986;52.788;41.368;2023-04-26T13:11:07;98388.88;;;18.11;44.76
65384;BME280;51986;52.788;41.368;2023-04-26T13:13:34;98389.22;;;18.04;44.17
65384;BME280;51986;52.788;41.368;2023-04-26T13:16:10;98406.41;;;17.83;44.03
65384;BME280;51986;52.788;41.368;2023-04-26T13:18:39;98452.00;;;17.70;44.08
65384;BME280;51986;52.788;41.368;2023-04-26T13:21:06;98478.16;;;17.03;42.78
65384;BME280;51986;52.788;41.368;2023-04-26T13:23:33;98500.09;;;16.41;45.68
65384;BME280;51986;52.788;41.368;2023-04-26T13:26:00;98481.25;;;16.11;47.09
65384;BME280;51986;52.788;41.368;2023-04-26T13:28:27;98474.72;;;15.61;49.28